Time;durP1;ratioP1;P1;durP2;ratioP2;P2;SDS_P1;SDS_P2;PMS_P1;PMS_P2;Temp;Humidity;BMP_temperature;BMP_pressure;BME280_temperature;BME280_humidity;BME280_pressure;Samples;Min_cycle;Max_cycle;Signal;HPM_P1;HPM_P2
2022/01/05 00:01:10;;;;;;;25.92;4.28;;;;;;;0.99;100.00;97923.69;4946003;29;20034;-81
2022/01/05 00:03:36;;;;;;;21.08;3.95;;;;;;;1.03;100.00;97906.09;4925131;29;20031;-80
2022/01/05 00:06:03;;;;;;;17.75;3.38;;;;;;;1.05;100.00;97902.38;4940233;29;20045;-79
2022/01/05 00:08:29;;;;;;;16.33;3.60;;;;;;;0.94;100.00;97954.38;4926703;29;20434;-79
2022/01/05 00:10:55;;;;;;;12.88;2.85;;;;;;;1.03;100.00;97924.19;4944804;29;20131;-80
2022/01/05 00:13:22;;;;;;;17.52;2.90;;;;;;;1.08;100.00;97927.91;4939758;29;20036;-79
2022/01/05 00:15:48;;;;;;;39.95;4.70;;;;;;;1.15;100.00;97930.63;4943559;29;20027;-79
2022/01/05 00:18:14;;;;;;;14.38;3.40;;;;;;;1.08;100.00;97937.44;4941470;29;20058;-78
2022/01/05 00:20:39;;;;;;;18.63;3.72;;;;;;;1.08;100.00;97927.91;4940054;29;20035;-81
2022/01/05 00:23:05;;;;;;;20.17;3.58;;;;;;;1.03;100.00;97906.09;4941948;29;20035;-80
2022/01/05 00:25:30;;;;;;;15.10;3.40;;;;;;;1.07;100.00;97917.72;4942789;29;20043;-80
2022/01/05 00:27:57;;;;;;;17.48;2.78;;;;;;;1.01;100.00;97929.50;4941354;29;20027;-81
2022/01/05 00:30:23;;;;;;;14.60;2.97;;;;;;;1.05;100.00;97919.66;4928415;29;20077;-81
2022/01/05 00:32:49;;;;;;;12.38;2.80;;;;;;;1.09;100.00;97934.69;4931447;29;20027;-80
2022/01/05 00:35:15;;;;;;;19.83;3.05;;;;;;;1.13;100.00;97924.81;4925816;29;20028;-81
2022/01/05 00:37:40;;;;;;;18.50;3.17;;;;;;;1.11;100.00;97921.59;4938631;28;20031;-80
2022/01/05 00:40:07;;;;;;;20.75;3.13;;;;;;;1.07;100.00;97935.81;4941844;29;20028;-80
2022/01/05 00:42:33;;;;;;;20.13;3.42;;;;;;;1.10;100.00;97922.56;4944688;29;20434;-82
2022/01/05 00:45:00;;;;;;;17.42;2.92;;;;;;;1.20;100.00;97928.41;4929341;29;20062;-79
2022/01/05 00:47:25;;;;;;;18.92;2.80;;;;;;;1.26;100.00;97929.50;4943543;29;20031;-80
2022/01/05 00:49:52;;;;;;;22.20;3.85;;;;;;;1.21;100.00;97924.84;4942530;29;20096;-80
2022/01/05 00:52:18;;;;;;;21.85;3.05;;;;;;;1.17;100.00;97926.13;4940140;29;20087;-80
2022/01/05 00:54:43;;;;;;;12.50;3.00;;;;;;;1.32;100.00;97922.88;4940531;29;20114;-79
2022/01/05 00:57:09;;;;;;;16.00;3.13;;;;;;;1.38;100.00;97928.22;4940179;29;20032;-80
2022/01/05 00:59:34;;;;;;;20.30;3.47;;;;;;;1.40;100.00;97910.75;4936452;29;20043;-79
2022/01/05 01:02:01;;;;;;;15.10;2.60;;;;;;;1.35;100.00;97917.38;4942063;29;20078;-79
2022/01/05 01:04:29;;;;;;;15.32;2.78;;;;;;;1.45;100.00;97923.22;4941863;29;20036;-78
2022/01/05 01:06:56;;;;;;;29.17;3.85;;;;;;;1.43;100.00;97919.97;4942202;28;20035;-80
2022/01/05 01:09:21;;;;;;;15.10;3.08;;;;;;;1.50;100.00;97920.94;4938821;29;20442;-80
2022/01/05 01:11:50;;;;;;;21.85;3.55;;;;;;;1.50;100.00;97926.09;4936629;29;20114;-82
2022/01/05 01:14:16;;;;;;;16.73;3.17;;;;;;;1.41;100.00;97927.09;4923776;29;20118;-82
2022/01/05 01:16:41;;;;;;;24.55;3.00;;;;;;;1.39;100.00;97913.53;4924280;29;20130;-80
2022/01/05 01:19:07;;;;;;;20.15;5.03;;;;;;;1.45;100.00;97910.28;4927211;29;20027;-82
2022/01/05 01:21:33;;;;;;;18.27;2.92;;;;;;;1.53;100.00;97910.25;4940365;29;20031;-82
2022/01/05 01:23:58;;;;;;;23.92;3.28;;;;;;;1.52;100.00;97929.34;4932010;29;20031;-81
2022/01/05 01:26:27;;;;;;;18.70;2.95;;;;;;;1.55;100.00;97928.22;4941259;29;20101;-81
2022/01/05 01:28:53;;;;;;;29.20;3.85;;;;;;;1.56;100.00;97919.47;4944061;29;20536;-81
2022/01/05 01:31:20;;;;;;;16.75;3.38;;;;;;;1.62;100.00;97938.72;4928741;29;20397;-80
2022/01/05 01:33:46;;;;;;;28.27;3.50;;;;;;;1.70;100.00;97942.09;4940974;29;20104;-82
2022/01/05 01:36:13;;;;;;;26.65;2.97;;;;;;;1.65;100.00;97940.97;4942047;29;20091;-81
2022/01/05 01:38:39;;;;;;;20.70;4.25;;;;;;;1.68;100.00;97958.75;4942072;28;20115;-80
2022/01/05 01:41:05;;;;;;;22.48;3.75;;;;;;;1.69;100.00;97966.34;4948089;29;20106;-80
2022/01/05 01:43:31;;;;;;;16.55;2.95;;;;;;;1.76;100.00;97961.31;4943354;29;20042;-80
2022/01/05 01:45:56;;;;;;;26.90;4.35;;;;;;;1.68;100.00;97969.09;4943305;29;20098;-80
2022/01/05 01:48:22;;;;;;;13.88;3.55;;;;;;;1.74;100.00;97971.00;4947042;29;20050;-79
2022/01/05 01:50:47;;;;;;;26.95;3.50;;;;;;;1.75;100.00;97944.16;4933536;29;20062;-80
2022/01/05 01:53:13;;;;;;;28.10;4.78;;;;;;;1.72;100.00;97954.84;4945075;28;20035;-80
2022/01/05 01:55:40;;;;;;;18.40;3.50;;;;;;;1.74;100.00;97945.13;4927911;29;20416;-81
2022/01/05 01:58:07;;;;;;;17.60;4.70;;;;;;;1.68;100.00;97948.41;4926282;29;20126;-81
2022/01/05 02:00:33;;;;;;;23.13;4.03;;;;;;;1.67;100.00;97975.25;4946484;29;20114;-81
2022/01/05 02:02:59;;;;;;;20.95;3.58;;;;;;;1.72;100.00;97944.50;4945073;29;20122;-80
2022/01/05 02:05:24;;;;;;;29.35;4.30;;;;;;;1.76;100.00;97942.41;4943163;29;20039;-81
2022/01/05 02:07:50;;;;;;;19.48;3.63;;;;;;;1.66;100.00;97942.59;4923980;29;20446;-80
2022/01/05 02:10:17;;;;;;;19.08;3.38;;;;;;;1.75;100.00;97949.34;4945355;29;20035;-81
2022/01/05 02:12:43;;;;;;;27.15;3.40;;;;;;;1.70;100.00;97938.69;4926118;29;20043;-80
2022/01/05 02:15:10;;;;;;;19.08;3.65;;;;;;;1.78;100.00;97933.50;4945124;29;20035;-81
2022/01/05 02:18:20;;;;;;;18.48;2.85;;;;;;;1.85;100.00;97960.34;4929085;29;20094;-81
2022/01/05 02:20:47;;;;;;;19.30;3.58;;;;;;;1.78;100.00;97940.44;4950231;29;20027;-81
2022/01/05 02:23:13;;;;;;;25.40;3.00;;;;;;;1.83;100.00;97954.53;4943698;29;20032;-81
2022/01/05 02:25:39;;;;;;;18.95;3.28;;;;;;;1.79;100.00;97965.34;4949616;29;20031;-81
2022/01/05 02:28:05;;;;;;;25.15;4.18;;;;;;;1.87;100.00;98003.34;4948270;29;20509;-80
2022/01/05 02:30:31;;;;;;;19.02;4.57;;;;;;;1.83;100.00;97990.75;4944169;29;20028;-81
2022/01/05 02:32:58;;;;;;;18.58;4.32;;;;;;;1.83;100.00;97988.16;4945193;29;20027;-80
2022/01/05 02:35:25;;;;;;;16.15;3.42;;;;;;;1.84;100.00;97992.34;4946880;29;20034;-80
2022/01/05 02:37:54;;;;;;;16.35;3.20;;;;;;;1.81;100.00;98004.81;4926386;29;20039;-79
2022/01/05 02:40:22;;;;;;;14.57;2.90;;;;;;;1.81;100.00;97995.28;4945153;29;20027;-80
2022/01/05 02:42:48;;;;;;;14.10;2.80;;;;;;;1.83;100.00;98016.63;4948725;29;20035;-79
2022/01/05 02:45:15;;;;;;;18.48;2.92;;;;;;;1.72;100.00;97996.25;4946494;29;20058;-80
2022/01/05 02:47:42;;;;;;;17.30;2.85;;;;;;;1.82;100.00;98006.41;4941860;29;20042;-80
2022/01/05 02:50:09;;;;;;;15.15;3.22;;;;;;;1.82;100.00;98009.00;4943292;29;20036;-80
2022/01/05 02:52:35;;;;;;;20.00;2.95;;;;;;;1.84;100.00;98020.00;4944799;29;20405;-79
2022/01/05 02:55:03;;;;;;;14.98;2.67;;;;;;;1.71;100.00;98021.31;4948101;28;20028;-80
2022/01/05 02:57:30;;;;;;;18.65;3.05;;;;;;;1.78;100.00;98021.47;4941240;29;20525;-80
2022/01/05 02:59:55;;;;;;;22.50;2.70;;;;;;;1.77;100.00;98032.81;4926262;29;20054;-80
2022/01/05 03:02:22;;;;;;;15.18;3.80;;;;;;;1.74;100.00;98015.00;4945306;29;20035;-80
2022/01/05 03:04:47;;;;;;;15.45;2.50;;;;;;;1.86;100.00;98056.88;4943735;29;20126;-80
2022/01/05 03:07:15;;;;;;;16.02;2.45;;;;;;;1.87;100.00;98037.81;4943054;29;20106;-81
2022/01/05 03:09:41;;;;;;;12.50;2.95;;;;;;;1.82;100.00;98032.28;4944426;28;20468;-82
2022/01/05 03:12:07;;;;;;;13.75;2.90;;;;;;;1.90;100.00;98042.66;4941328;29;20107;-81
2022/01/05 03:14:33;;;;;;;10.50;3.25;;;;;;;1.84;100.00;98025.19;4942558;29;20035;-81
2022/01/05 03:16:59;;;;;;;18.45;2.92;;;;;;;1.92;100.00;98037.31;4945000;29;20035;-81
2022/01/05 03:19:25;;;;;;;14.25;2.40;;;;;;;1.88;100.00;98051.53;4944915;29;20027;-81
2022/01/05 03:21:50;;;;;;;14.52;2.35;;;;;;;1.85;100.00;98022.44;4945770;29;20212;-81
2022/01/05 03:24:17;;;;;;;12.30;1.98;;;;;;;1.85;100.00;98040.56;4925358;29;20082;-81
2022/01/05 03:26:42;;;;;;;16.30;2.80;;;;;;;1.84;100.00;98038.94;4942239;29;20045;-81
2022/01/05 03:29:08;;;;;;;12.25;2.30;;;;;;;1.89;100.00;98028.09;4927768;29;20031;-80
2022/01/05 03:31:34;;;;;;;15.77;3.35;;;;;;;1.83;100.00;98032.16;4942335;29;20027;-80
2022/01/05 03:33:59;;;;;;;15.38;3.15;;;;;;;1.82;100.00;98047.81;4944909;29;20041;-79
2022/01/05 03:36:25;;;;;;;14.20;2.28;;;;;;;1.83;100.00;98029.56;4944874;29;20028;-81
2022/01/05 03:38:51;;;;;;;17.30;2.88;;;;;;;1.85;100.00;98048.31;4947653;29;20035;-82
2022/01/05 03:41:17;;;;;;;16.58;2.65;;;;;;;1.86;100.00;98038.75;4940934;29;20082;-81
2022/01/05 03:43:43;;;;;;;16.15;2.47;;;;;;;1.85;100.00;98048.31;4946700;29;20027;-81
2022/01/05 03:46:09;;;;;;;14.07;2.30;;;;;;;1.83;100.00;98050.25;4940540;29;20043;-81
2022/01/05 03:48:35;;;;;;;18.13;3.28;;;;;;;1.80;100.00;98060.94;4948367;29;20035;-80
2022/01/05 03:51:00;;;;;;;10.65;1.95;;;;;;;1.84;100.00;98080.34;4943980;29;20057;-79
2022/01/05 03:53:26;;;;;;;16.33;3.33;;;;;;;1.94;100.00;98061.22;4930075;29;20118;-80
2022/01/05 03:55:51;;;;;;;15.95;2.35;;;;;;;1.84;100.00;98057.06;4944728;29;20114;-80
2022/01/05 03:58:17;;;;;;;16.50;2.90;;;;;;;1.79;100.00;98069.66;4924056;29;20435;-80
2022/01/05 04:00:50;;;;;;;19.45;2.95;;;;;;;1.81;100.00;98114.31;4943005;29;20130;-80
2022/01/05 04:03:17;;;;;;;11.63;2.35;;;;;;;1.75;100.00;98103.78;4950325;29;20035;-80
2022/01/05 04:05:43;;;;;;;14.93;2.40;;;;;;;1.68;100.00;98119.13;4942765;29;20098;-81
2022/01/05 04:08:10;;;;;;;17.88;2.55;;;;;;;1.70;100.00;98127.53;4940106;29;20045;-79
2022/01/05 04:10:36;;;;;;;16.08;2.78;;;;;;;1.71;100.00;98109.28;4945762;29;20054;-82
2022/01/05 04:13:02;;;;;;;20.27;2.80;;;;;;;1.76;100.00;98116.53;4945846;29;20035;-81
2022/01/05 04:15:28;;;;;;;18.02;2.50;;;;;;;1.81;100.00;98129.00;4946469;29;20035;-80
2022/01/05 04:17:54;;;;;;;18.95;2.35;;;;;;;1.73;100.00;98129.00;4942769;29;20058;-80
2022/01/05 04:20:20;;;;;;;17.35;2.33;;;;;;;1.76;100.00;98129.47;4944998;29;20406;-80
2022/01/05 04:22:46;;;;;;;12.05;3.28;;;;;;;1.72;100.00;98120.44;4943929;29;20130;-79
2022/01/05 04:25:12;;;;;;;16.83;2.63;;;;;;;1.69;100.00;98141.44;4941013;29;20035;-81
2022/01/05 04:27:46;;;;;;;15.80;2.45;;;;;;;1.70;100.00;98119.78;4943325;29;20027;-80
2022/01/05 04:30:12;;;;;;;15.20;2.58;;;;;;;1.73;100.00;98139.38;4940664;29;20458;-79
2022/01/05 04:32:40;;;;;;;15.88;2.15;;;;;;;1.72;100.00;98146.28;4942542;29;20415;-80
2022/01/05 04:35:06;;;;;;;17.70;2.30;;;;;;;1.72;100.00;98159.22;4944109;29;20035;-80
2022/01/05 04:37:32;;;;;;;9.65;2.58;;;;;;;1.65;100.00;98142.75;4941249;29;20502;-79
2022/01/05 04:40:01;;;;;;;12.02;3.40;;;;;;;1.65;100.00;98124.63;4939761;29;20028;-79
2022/01/05 04:42:27;;;;;;;13.93;2.35;;;;;;;1.69;100.00;98146.63;4943017;29;20039;-81
2022/01/05 04:44:54;;;;;;;19.20;2.53;;;;;;;1.67;100.00;98153.72;4941221;29;20046;-80
2022/01/05 04:47:20;;;;;;;16.42;2.38;;;;;;;1.75;100.00;98148.56;4939975;29;20119;-80
2022/01/05 04:49:46;;;;;;;17.67;2.50;;;;;;;1.68;100.00;98150.19;4946281;29;20027;-80
2022/01/05 04:52:12;;;;;;;18.02;3.53;;;;;;;1.64;100.00;98148.88;4927311;29;20074;-82
2022/01/05 04:54:38;;;;;;;14.48;3.22;;;;;;;1.74;100.00;98164.25;4945762;29;20114;-79
2022/01/05 04:57:05;;;;;;;18.02;2.97;;;;;;;1.58;100.00;98167.63;4942147;29;20064;-81
2022/01/05 04:59:32;;;;;;;12.32;2.53;;;;;;;1.68;100.00;98160.53;4942523;29;20504;-80
2022/01/05 05:01:58;;;;;;;21.10;2.58;;;;;;;1.69;100.00;98172.50;4928079;29;20482;-80
2022/01/05 05:04:23;;;;;;;12.98;2.28;;;;;;;1.56;100.00;98172.94;4947347;29;20058;-81
2022/01/05 05:06:49;;;;;;;14.02;2.42;;;;;;;1.73;100.00;98178.16;4940734;29;20039;-80
2022/01/05 05:09:16;;;;;;;12.38;2.60;;;;;;;1.79;100.00;98188.69;4941718;29;20505;-81
2022/01/05 05:11:42;;;;;;;21.27;3.13;;;;;;;1.75;100.00;98184.78;4944305;29;20089;-80
2022/01/05 05:14:09;;;;;;;17.02;3.38;;;;;;;1.76;100.00;98194.16;4948644;28;20026;-81
2022/01/05 05:16:35;;;;;;;14.82;2.47;;;;;;;1.74;100.00;98185.75;4945814;29;20023;-81
2022/01/05 05:19:00;;;;;;;13.77;2.65;;;;;;;1.69;100.00;98208.72;4948243;29;20186;-82
2022/01/05 05:21:26;;;;;;;13.57;3.05;;;;;;;1.76;100.00;98189.00;4948839;29;20040;-82
2022/01/05 05:23:52;;;;;;;10.75;2.55;;;;;;;1.72;100.00;98187.69;4949502;29;20035;-81
2022/01/05 05:26:17;;;;;;;22.98;3.72;;;;;;;1.63;100.00;98188.66;4950278;29;20557;-81
2022/01/05 05:28:43;;;;;;;15.98;3.13;;;;;;;1.67;100.00;98213.25;4948477;29;20111;-81
2022/01/05 05:31:09;;;;;;;19.63;2.65;;;;;;;1.70;100.00;98194.81;4948382;29;20481;-81
2022/01/05 05:33:35;;;;;;;16.40;2.35;;;;;;;1.74;100.00;98205.66;4944610;29;20034;-81
2022/01/05 05:36:02;;;;;;;21.23;3.05;;;;;;;1.66;100.00;98203.84;4935400;29;20027;-81
2022/01/05 05:38:28;;;;;;;22.70;3.67;;;;;;;1.59;100.00;98210.63;4949517;29;20548;-81
2022/01/05 05:40:54;;;;;;;15.40;2.40;;;;;;;1.63;100.00;98224.88;4948523;29;20046;-81
2022/01/05 05:43:20;;;;;;;16.05;2.17;;;;;;;1.67;100.00;98223.59;4947702;29;20027;-81
2022/01/05 05:45:46;;;;;;;18.45;2.97;;;;;;;1.56;100.00;98228.06;4943535;29;20059;-81
2022/01/05 05:48:12;;;;;;;15.48;3.47;;;;;;;1.51;100.00;98222.56;4941624;29;20036;-81
2022/01/05 05:50:38;;;;;;;16.58;3.13;;;;;;;1.53;100.00;98225.00;4947211;28;20054;-80
2022/01/05 05:53:04;;;;;;;9.40;1.70;;;;;;;1.44;100.00;98213.81;4949637;29;20031;-80
2022/01/05 05:55:30;;;;;;;13.02;3.28;;;;;;;1.48;100.00;98216.91;4950805;29;20085;-82
2022/01/05 05:57:56;;;;;;;15.77;1.98;;;;;;;1.45;100.00;98228.38;4944339;29;20066;-80
2022/01/05 06:00:22;;;;;;;17.17;2.97;;;;;;;1.55;100.00;98223.88;4949534;29;20490;-79
2022/01/05 06:02:48;;;;;;;15.73;2.33;;;;;;;1.56;100.00;98209.16;4947465;29;20500;-80
2022/01/05 06:05:13;;;;;;;21.20;2.58;;;;;;;1.64;100.00;98210.97;4942654;29;20031;-82
2022/01/05 06:07:39;;;;;;;10.30;2.13;;;;;;;1.60;100.00;98228.56;4946054;29;20031;-82
2022/01/05 06:10:05;;;;;;;9.48;2.20;;;;;;;1.55;100.00;98241.97;4948826;29;20055;-82
2022/01/05 06:12:31;;;;;;;18.05;2.38;;;;;;;1.54;100.00;98226.63;4942863;28;20130;-81
2022/01/05 06:14:56;;;;;;;14.13;2.45;;;;;;;1.59;100.00;98237.31;4930659;29;20032;-81
2022/01/05 06:17:22;;;;;;;8.93;2.38;;;;;;;1.58;100.00;98237.47;4941603;29;20381;-81
2022/01/05 06:19:48;;;;;;;13.10;2.25;;;;;;;1.61;100.00;98237.16;4946134;29;20059;-80
2022/01/05 06:22:14;;;;;;;22.23;2.85;;;;;;;1.47;100.00;98230.78;4947308;29;20142;-81
2022/01/05 06:24:40;;;;;;;19.85;3.08;;;;;;;1.51;100.00;98250.22;4945500;29;20035;-81
2022/01/05 06:27:09;;;;;;;20.08;2.97;;;;;;;1.53;100.00;98264.59;4940874;29;20148;-82
2022/01/05 06:29:39;;;;;;;11.02;3.70;;;;;;;1.51;100.00;98253.59;4945456;29;20036;-80
2022/01/05 06:32:05;;;;;;;17.20;3.10;;;;;;;1.40;100.00;98251.31;4944925;29;20122;-82
2022/01/05 06:34:30;;;;;;;18.90;3.28;;;;;;;1.63;100.00;98271.44;4944936;29;20040;-82
2022/01/05 06:36:56;;;;;;;10.05;2.40;;;;;;;1.48;100.00;98253.91;4947897;29;20105;-81
2022/01/05 06:39:22;;;;;;;11.10;3.58;;;;;;;1.65;100.00;98275.47;4945727;29;20059;-79
2022/01/05 06:41:47;;;;;;;15.45;2.70;;;;;;;1.62;100.00;98272.41;4945733;29;20074;-81
2022/01/05 06:44:13;;;;;;;15.00;3.28;;;;;;;1.51;100.00;98269.13;4945226;29;20122;-80
2022/01/05 06:46:38;;;;;;;19.00;3.33;;;;;;;1.67;100.00;98302.03;4947801;29;20047;-79
2022/01/05 06:49:04;;;;;;;11.32;2.05;;;;;;;1.69;100.00;98301.84;4927228;29;20038;-81
2022/01/05 06:51:30;;;;;;;11.48;2.08;;;;;;;1.73;100.00;98304.94;4941920;29;20023;-81
2022/01/05 06:53:55;;;;;;;11.88;2.05;;;;;;;1.52;100.00;98291.44;4945727;29;20283;-82
2022/01/05 06:56:21;;;;;;;11.63;2.13;;;;;;;1.54;100.00;98294.66;4945990;29;20079;-81
2022/01/05 06:58:48;;;;;;;11.50;2.40;;;;;;;1.33;100.00;98304.59;4944461;29;20498;-81
2022/01/05 07:01:13;;;;;;;12.88;2.65;;;;;;;1.52;100.00;98337.19;4946197;29;20019;-82
2022/01/05 07:03:39;;;;;;;7.72;2.38;;;;;;;1.46;100.00;98330.03;4942676;29;20039;-82
2022/01/05 07:06:05;;;;;;;15.38;3.10;;;;;;;1.40;100.00;98326.28;4952082;29;20024;-82
2022/01/05 07:08:31;;;;;;;15.80;2.35;;;;;;;1.39;100.00;98342.78;4943440;29;20537;-83
2022/01/05 07:10:56;;;;;;;21.13;5.30;;;;;;;1.48;100.00;98339.25;4945892;29;20565;-82
2022/01/05 07:13:22;;;;;;;16.17;2.47;;;;;;;1.41;100.00;98340.84;4944814;29;20034;-80
2022/01/05 07:15:48;;;;;;;11.18;2.40;;;;;;;1.50;100.00;98373.53;4943546;29;20028;-81
2022/01/05 07:18:15;;;;;;;16.60;2.78;;;;;;;1.45;100.00;98372.38;4922509;29;20518;-81
2022/01/05 07:20:42;;;;;;;13.23;2.78;;;;;;;1.42;100.00;98363.16;4942854;29;20034;-80
2022/01/05 07:23:09;;;;;;;15.50;2.97;;;;;;;1.34;100.00;98381.19;4945598;29;20054;-80
2022/01/05 07:25:34;;;;;;;6.25;2.58;;;;;;;1.26;100.00;98379.34;4944844;29;20039;-81
2022/01/05 07:28:00;;;;;;;12.02;2.53;;;;;;;1.26;100.00;98392.28;4942440;29;20035;-81
2022/01/05 07:30:26;;;;;;;22.90;2.95;;;;;;;1.21;100.00;98389.34;4944246;29;20035;-81
2022/01/05 07:32:51;;;;;;;15.63;3.20;;;;;;;1.20;100.00;98390.31;4945770;29;20474;-81
2022/01/05 07:35:17;;;;;;;15.38;2.42;;;;;;;1.24;100.00;98387.28;4945484;28;20031;-81
2022/01/05 07:37:42;;;;;;;11.68;2.35;;;;;;;1.12;100.00;98393.63;4944549;29;20036;-80
2022/01/05 07:40:09;;;;;;;14.13;2.65;;;;;;;1.07;100.00;98380.34;4941094;29;20090;-79
2022/01/05 07:42:35;;;;;;;10.68;2.15;;;;;;;1.17;100.00;98391.41;4925651;29;20129;-81
2022/01/05 07:45:03;;;;;;;11.90;2.55;;;;;;;1.25;100.00;98414.75;4938986;29;20073;-80
2022/01/05 07:47:28;;;;;;;9.95;3.35;;;;;;;1.16;100.00;98400.13;4921491;29;20391;-80
2022/01/05 07:49:54;;;;;;;11.75;2.30;;;;;;;1.17;100.00;98395.78;4944684;29;20031;-81
2022/01/05 07:52:20;;;;;;;21.15;2.70;;;;;;;1.18;100.00;98415.50;4945368;29;20059;-80
2022/01/05 07:54:45;;;;;;;14.73;3.10;;;;;;;1.16;100.00;98425.97;4938651;29;20031;-80
2022/01/05 07:57:11;;;;;;;17.08;3.28;;;;;;;1.21;100.00;98416.03;4932909;29;20028;-82
2022/01/05 07:59:36;;;;;;;14.73;2.67;;;;;;;1.19;100.00;98430.88;4938663;29;20122;-80
2022/01/05 08:02:02;;;;;;;13.23;2.15;;;;;;;1.13;100.00;98436.63;4944423;29;20432;-81
2022/01/05 08:04:28;;;;;;;15.07;3.10;;;;;;;1.16;100.00;98430.34;4943579;29;20059;-80
2022/01/05 08:06:54;;;;;;;11.07;2.28;;;;;;;1.15;100.00;98445.03;4938659;29;20063;-77
2022/01/05 08:09:20;;;;;;;16.13;2.60;;;;;;;1.23;100.00;98446.88;4944765;29;20082;-78
2022/01/05 08:11:46;;;;;;;19.23;2.40;;;;;;;1.12;100.00;98429.81;4948530;29;20110;-79
2022/01/05 08:14:12;;;;;;;14.50;2.85;;;;;;;1.19;100.00;98445.56;4940375;29;20123;-79
2022/01/05 08:16:37;;;;;;;14.23;2.47;;;;;;;1.19;100.00;98448.97;4940748;29;20030;-79
2022/01/05 08:19:03;;;;;;;17.25;2.40;;;;;;;1.23;100.00;98455.47;4939802;29;20078;-80
2022/01/05 08:21:29;;;;;;;12.73;3.50;;;;;;;1.23;100.00;98450.28;4941821;29;20046;-79
2022/01/05 08:23:54;;;;;;;11.50;2.20;;;;;;;1.29;100.00;98487.69;4924994;29;20035;-80
2022/01/05 08:26:20;;;;;;;16.10;2.45;;;;;;;1.40;100.00;98473.69;4942034;29;20478;-80
2022/01/05 08:28:46;;;;;;;18.65;2.97;;;;;;;1.33;100.00;98472.66;4942397;29;20027;-79
2022/01/05 08:31:11;;;;;;;14.57;2.47;;;;;;;1.23;100.00;98452.06;4940545;29;20045;-79
2022/01/05 08:33:37;;;;;;;18.17;2.17;;;;;;;1.31;100.00;98469.41;4923931;29;20051;-80
2022/01/05 08:36:03;;;;;;;13.50;2.40;;;;;;;1.42;100.00;98487.28;4942554;28;20495;-81
2022/01/05 08:38:31;;;;;;;13.82;2.15;;;;;;;1.32;100.00;98471.03;4939534;29;20110;-80
2022/01/05 08:40:56;;;;;;;19.27;3.30;;;;;;;1.33;100.00;98481.25;4940043;29;20038;-81
2022/01/05 08:43:22;;;;;;;21.60;3.45;;;;;;;1.33;100.00;98486.41;4944009;28;20031;-78
2022/01/05 08:45:47;;;;;;;11.32;2.38;;;;;;;1.33;100.00;98503.69;4942344;29;20051;-81
2022/01/05 08:48:14;;;;;;;16.48;2.92;;;;;;;1.41;100.00;98511.53;4941891;29;20375;-81
2022/01/05 08:50:39;;;;;;;15.63;2.72;;;;;;;1.40;100.00;98504.72;4940275;29;20959;-81
2022/01/05 08:53:07;;;;;;;15.55;2.72;;;;;;;1.28;100.00;98506.72;4942769;29;20110;-81
2022/01/05 08:55:45;;;;;;;13.88;1.90;;;;;;;1.47;100.00;98521.28;4943290;29;20037;-82
2022/01/05 08:58:13;;;;;;;13.00;2.65;;;;;;;1.43;100.00;98520.75;4940942;29;20111;-81
2022/01/05 09:00:39;;;;;;;15.48;2.13;;;;;;;1.46;100.00;98524.81;4941523;29;20028;-82
2022/01/05 09:03:06;;;;;;;14.15;2.65;;;;;;;1.45;100.00;98518.03;4943837;29;20024;-81
2022/01/05 09:05:32;;;;;;;12.25;2.40;;;;;;;1.50;100.00;98526.16;4942607;29;20497;-80
2022/01/05 09:07:58;;;;;;;17.65;3.35;;;;;;;1.48;100.00;98522.09;4943402;29;20035;-80
2022/01/05 09:10:24;;;;;;;15.00;2.22;;;;;;;1.54;100.00;98537.81;4943123;29;20027;-80
2022/01/05 09:12:53;;;;;;;12.00;2.08;;;;;;;1.58;100.00;98542.72;4921508;29;20570;-81
2022/01/05 09:15:19;;;;;;;12.13;2.75;;;;;;;1.63;100.00;98553.44;4943346;29;20046;-81
2022/01/05 09:17:45;;;;;;;10.00;2.28;;;;;;;1.65;100.00;98552.28;4941040;29;20043;-83
2022/01/05 09:20:12;;;;;;;13.90;2.20;;;;;;;1.62;100.00;98554.38;4926796;29;20066;-82
2022/01/05 09:22:38;;;;;;;12.77;2.20;;;;;;;1.53;100.00;98541.38;4940535;29;20059;-82
2022/01/05 09:25:09;;;;;;;14.07;2.42;;;;;;;1.75;100.00;98570.31;4943962;29;20027;-85
2022/01/05 09:27:37;;;;;;;12.65;2.65;;;;;;;1.45;100.00;98549.06;4933610;29;20042;-85
2022/01/05 09:30:10;;;;;;;9.25;2.10;;;;;;;1.67;100.00;98568.50;4959785;29;20114;-89
2022/01/05 09:32:38;;;;;;;7.78;2.47;;;;;;;1.71;100.00;98566.41;4944092;29;20035;-88
2022/01/05 09:35:05;;;;;;;8.77;1.90;;;;;;;1.61;100.00;98550.97;4945823;29;20027;-81
2022/01/05 09:37:35;;;;;;;12.95;2.58;;;;;;;1.76;100.00;98571.16;4943218;29;20027;-83
2022/01/05 09:42:48;;;;;;;12.27;2.00;;;;;;;1.77;100.00;98568.44;4944220;29;20054;-83
2022/01/05 09:45:16;;;;;;;11.82;2.33;;;;;;;1.98;100.00;98590.59;4943804;28;20039;-85
2022/01/05 09:48:03;;;;;;;11.48;2.03;;;;;;;2.09;100.00;98611.03;4946059;29;20043;-82
2022/01/05 09:50:31;;;;;;;8.40;1.55;;;;;;;1.89;100.00;98587.13;4949038;29;20031;-82
2022/01/05 09:52:58;;;;;;;6.03;1.90;;;;;;;2.07;100.00;98596.66;4942787;29;20036;-84
2022/01/05 09:55:25;;;;;;;8.70;2.28;;;;;;;1.96;100.00;98611.44;4931527;29;20475;-82
2022/01/05 09:57:52;;;;;;;10.95;2.00;;;;;;;2.08;100.00;98624.94;4929096;29;20028;-83
2022/01/05 10:00:18;;;;;;;9.23;2.08;;;;;;;2.20;100.00;98640.25;4930334;29;20090;-84
2022/01/05 10:02:45;;;;;;;6.55;1.90;;;;;;;2.20;100.00;98624.72;4924501;29;20035;-82
2022/01/05 10:05:16;;;;;;;7.15;2.17;;;;;;;2.27;100.00;98621.38;4954101;29;20039;-81
2022/01/05 10:07:42;;;;;;;9.55;1.70;;;;;;;2.21;100.00;98631.53;4952070;29;20122;-85
2022/01/05 10:10:09;;;;;;;8.82;1.55;;;;;;;2.36;100.00;98635.22;4950665;29;20062;-82
2022/01/05 10:12:35;;;;;;;12.93;2.40;;;;;;;2.31;100.00;98640.00;4949386;29;20434;-82
2022/01/05 10:15:02;;;;;;;11.38;1.95;;;;;;;2.51;100.00;98650.19;4952481;29;20035;-81
2022/01/05 10:17:30;;;;;;;8.20;1.25;;;;;;;2.36;100.00;98645.56;4953588;29;20063;-81
2022/01/05 10:20:08;;;;;;;5.97;1.40;;;;;;;2.46;100.00;98660.19;4946454;29;20063;-82
2022/01/05 10:22:44;;;;;;;9.38;2.33;;;;;;;2.53;100.00;98667.22;4947998;29;20039;-82
2022/01/05 10:25:20;;;;;;;9.18;1.77;;;;;;;2.48;100.00;98676.41;4944142;29;20036;-82
2022/01/05 10:27:59;;;;;;;9.98;2.42;;;;;;;2.57;100.00;98673.72;4931427;29;20039;-82
2022/01/05 10:30:46;;;;;;;14.68;2.25;;;;;;;2.56;100.00;98658.34;4945495;29;20036;-81
2022/01/05 10:33:12;;;;;;;7.68;1.85;;;;;;;2.51;100.00;98661.38;4945339;29;20035;-81
2022/01/05 10:35:38;;;;;;;9.10;2.38;;;;;;;2.50;100.00;98671.88;4948601;29;20031;-82
2022/01/05 10:38:09;;;;;;;6.63;1.70;;;;;;;2.42;100.00;98665.69;4944785;29;20047;-83
2022/01/05 10:40:37;;;;;;;11.68;2.45;;;;;;;2.58;100.00;98684.91;4948732;29;20061;-82
2022/01/05 10:43:09;;;;;;;9.23;2.10;;;;;;;2.46;100.00;98678.31;4944414;29;20039;-83
2022/01/05 10:45:39;;;;;;;8.05;2.15;;;;;;;2.55;100.00;98687.78;4947653;29;20528;-81
2022/01/05 10:48:07;;;;;;;5.15;1.90;;;;;;;2.53;100.00;98671.56;4928062;29;20086;-82
2022/01/05 10:50:34;;;;;;;11.05;2.00;;;;;;;2.78;100.00;98697.66;4947733;29;20036;-82
2022/01/05 10:53:00;;;;;;;11.93;2.15;;;;;;;2.70;100.00;98681.06;4948543;29;20028;-82
2022/01/05 10:55:28;;;;;;;10.52;1.83;;;;;;;2.75;100.00;98679.81;4933311;29;20442;-82
2022/01/05 10:58:01;;;;;;;6.93;1.73;;;;;;;2.80;100.00;98703.50;4929452;29;20054;-83
2022/01/05 11:00:52;;;;;;;8.57;2.47;;;;;;;2.86;100.00;98713.25;4947846;29;20126;-82
2022/01/05 11:03:31;;;;;;;8.65;1.60;;;;;;;2.90;100.00;98717.16;4928617;29;20126;-82
2022/01/05 11:06:12;;;;;;;6.47;1.58;;;;;;;2.90;100.00;98718.97;4945045;29;20031;-83
2022/01/05 11:09:01;;;;;;;11.68;1.63;;;;;;;2.68;100.00;98706.34;4947423;29;20490;-82
2022/01/05 11:11:36;;;;;;;6.65;1.92;;;;;;;2.91;100.00;98736.94;4924066;29;20390;-81
2022/01/05 11:14:29;;;;;;;7.28;1.85;;;;;;;2.90;100.00;98740.50;4941330;29;20383;-82
2022/01/05 11:16:56;;;;;;;12.85;2.03;;;;;;;2.81;100.00;98738.81;4944561;29;20047;-81
2022/01/05 11:19:29;;;;;;;9.88;1.85;;;;;;;2.89;100.00;98744.06;4942711;29;20394;-82
2022/01/05 11:22:12;;;;;;;8.80;2.03;;;;;;;3.00;100.00;98749.00;4949039;29;20032;-82
2022/01/05 11:24:46;;;;;;;9.65;1.65;;;;;;;3.12;100.00;98753.91;4941110;29;20040;-82
2022/01/05 11:27:18;;;;;;;5.13;1.63;;;;;;;3.04;100.00;98740.91;4944569;29;20035;-81
2022/01/05 11:29:46;;;;;;;10.57;1.60;;;;;;;3.09;100.00;98764.59;4946999;29;20051;-81